Terminal Aerodrome Forecast
Issued by NWS Riverton, WY

Home | Current Version | Previous Version | Text Only | Print | Product List | Glossary On
Versions: 1 2 3 4 5 6 7 8 9 10 11 12 13 14 15 16 17 18 19 20 21 22
000
FTUS45 KRIW 222300
TAFRIW
TAF
KRIW 222327Z 2300/2324 10009KT P6SM VCSH SCT025 BKN060
     FM230300 10007KT P6SM -SHRA SCT025 BKN040
      TEMPO 2303/2306 6SM -SHRA BKN025
     FM231600 VRB05KT P6SM VCSH SCT050 BKN100
     FM232200 02005KT P6SM VCTS SCT050CB BKN100=

USA.gov is the U.S. government's official web portal to all federal, state and local government web resources and services.